Main page
METAR-TAF:

METAR-TAF

Airports :

Jasper County Airport

Jasper County, Indiana, United States

latitude: 40-56-52N, longitude: 087-10-57W, elevation: 699 ft

Current weather observation

The report was made 13 minutes ago, at 20:55 UTC
Wind 9 mph from the North
Temperature 52°F
Humidity 54%
Pressure 30.06 in. Hg
Visibility: 10 miles
Scattered clouds at a height of 3300 ft

METAR: KRZL 012055Z AUTO 35008KT 10SM SCT033 11/02 A3006 RMK AO2

Time: 17:08 (21:08 UTC)


TAF: missing

Weather observations and forecasts of more than 4000 airports (METAR and TAF reports).

The available stations are represented by yellow and red dots on the map.

Hover mouse over dot to see the name of the station.

Then click to see weather observations and forecasts.

To change the map : click on the green buttons with a black cross to zoom in, on the green button with a dash to zoom out, or on the green arrows for adjacent maps.


METAR-TAF: